Time;durP1;ratioP1;P1;durP2;ratioP2;P2;SDS_P1;SDS_P2;PMS_P1;PMS_P2;Temp;Humidity;BMP_temperature;BMP_pressure;BME280_temperature;BME280_humidity;BME280_pressure;Samples;Min_cycle;Max_cycle;Signal;HPM_P1;HPM_P2
2022/07/24 00:01:33;;;;;;;6.97;3.33;;;17.00;99.90;;;;;;5051169;28;20470;-74
2022/07/24 00:04:05;;;;;;;3.80;3.08;;;17.20;99.90;;;;;;5018748;28;20055;-74
2022/07/24 00:06:31;;;;;;;5.88;3.15;;;18.70;99.90;;;;;;5052073;28;20037;-74
2022/07/24 00:08:56;;;;;;;4.20;3.40;;;17.00;99.90;;;;;;5034530;28;20048;-74
2022/07/24 00:11:22;;;;;;;4.10;3.50;;;17.00;99.90;;;;;;5052227;28;20036;-75
2022/07/24 00:13:47;;;;;;;3.63;2.83;;;16.80;99.90;;;;;;5034536;28;20045;-74
2022/07/24 00:16:13;;;;;;;6.28;3.38;;;18.10;99.90;;;;;;5034549;28;20036;-75
2022/07/24 00:18:39;;;;;;;4.18;3.22;;;16.90;99.90;;;;;;5052267;28;20029;-75
2022/07/24 00:21:05;;;;;;;3.28;2.95;;;16.80;99.90;;;;;;5052132;28;20040;-75
2022/07/24 00:23:30;;;;;;;3.95;3.35;;;16.90;99.90;;;;;;5034310;28;20052;-75
2022/07/24 00:25:56;;;;;;;3.90;3.10;;;17.80;99.90;;;;;;5051670;28;20040;-75
2022/07/24 00:28:22;;;;;;;5.85;3.50;;;16.80;99.90;;;;;;5034509;28;20045;-75
2022/07/24 00:30:47;;;;;;;6.22;3.60;;;16.80;99.90;;;;;;5034147;28;20041;-76
2022/07/24 00:33:13;;;;;;;4.88;4.07;;;17.40;99.90;;;;;;5034331;28;20036;-75
2022/07/24 00:35:39;;;;;;;4.82;4.22;;;16.80;99.90;;;;;;5050428;28;20076;-75
2022/07/24 00:38:04;;;;;;;7.80;4.07;;;16.60;99.90;;;;;;5034447;28;20039;-75
2022/07/24 00:40:30;;;;;;;6.20;3.97;;;16.70;99.90;;;;;;5051844;28;20076;-75
2022/07/24 00:42:57;;;;;;;6.45;3.97;;;16.80;99.90;;;;;;5050653;28;20128;-75
2022/07/24 00:45:23;;;;;;;6.25;4.43;;;16.70;99.90;;;;;;5050406;28;20082;-75
2022/07/24 00:47:49;;;;;;;4.90;3.75;;;18.40;99.90;;;;;;5034023;28;20045;-75
2022/07/24 00:50:14;;;;;;;5.43;4.38;;;16.80;99.90;;;;;;5033943;28;20072;-75
2022/07/24 00:52:40;;;;;;;4.68;4.20;;;17.30;99.90;;;;;;5051805;28;20047;-75
2022/07/24 00:55:06;;;;;;;4.65;4.05;;;15.20;99.90;;;;;;5051297;28;20494;-76
2022/07/24 00:57:32;;;;;;;7.32;3.90;;;16.80;99.90;;;;;;5050692;28;20044;-75
2022/07/24 00:59:58;;;;;;;5.25;4.72;;;16.60;99.90;;;;;;5033904;28;20037;-75
2022/07/24 01:02:24;;;;;;;4.57;4.05;;;16.70;99.90;;;;;;5051998;28;20044;-75
2022/07/24 01:04:51;;;;;;;6.70;4.32;;;16.70;99.90;;;;;;5033820;28;20087;-75
2022/07/24 01:07:16;;;;;;;5.30;4.50;;;16.70;99.90;;;;;;5051570;28;20028;-75
2022/07/24 01:09:43;;;;;;;4.43;3.97;;;16.50;99.90;;;;;;5033648;28;20051;-76
2022/07/24 01:12:08;;;;;;;6.43;4.28;;;16.50;99.90;;;;;;5050268;28;20041;-76
2022/07/24 01:14:34;;;;;;;6.43;5.22;;;16.70;99.90;;;;;;5033804;28;20060;-75
2022/07/24 01:17:01;;;;;;;7.82;4.82;;;16.80;99.90;;;;;;5050409;28;20041;-75
2022/07/24 01:19:26;;;;;;;5.25;4.70;;;17.50;99.90;;;;;;5053926;28;20178;-76
2022/07/24 01:21:53;;;;;;;5.85;4.88;;;16.60;99.90;;;;;;5037802;28;20128;-75
2022/07/24 01:24:20;;;;;;;8.05;4.45;;;16.60;99.90;;;;;;5055264;28;20171;-75
2022/07/24 01:26:47;;;;;;;5.95;4.88;;;17.10;99.90;;;;;;5021638;28;20500;-75
2022/07/24 01:29:14;;;;;;;5.75;4.55;;;17.60;99.90;;;;;;5040718;28;20068;-74
2022/07/24 01:31:39;;;;;;;11.45;5.65;;;16.40;99.90;;;;;;5057166;28;20044;-75
2022/07/24 01:34:05;;;;;;;7.18;4.90;;;18.00;99.90;;;;;;5038311;28;20033;-74
2022/07/24 01:36:31;;;;;;;5.85;4.68;;;17.90;99.90;;;;;;5023285;28;20041;-75
2022/07/24 01:38:57;;;;;;;5.75;5.13;;;16.60;99.90;;;;;;5038679;28;20041;-74
2022/07/24 01:41:23;;;;;;;9.07;5.30;;;16.30;99.90;;;;;;5038121;28;20037;-76
2022/07/24 01:43:48;;;;;;;6.22;4.45;;;16.30;99.90;;;;;;5037139;28;20114;-75
2022/07/24 01:46:14;;;;;;;7.32;4.95;;;16.30;99.90;;;;;;5037605;28;20124;-75
2022/07/24 01:48:44;;;;;;;5.72;5.10;;;16.60;99.90;;;;;;5055005;28;20033;-75
2022/07/24 01:51:10;;;;;;;6.88;5.20;;;16.40;99.90;;;;;;5037441;28;20040;-75
2022/07/24 01:53:35;;;;;;;8.82;5.43;;;16.40;99.90;;;;;;5054877;28;20402;-75
2022/07/24 01:56:01;;;;;;;6.47;5.18;;;16.20;99.90;;;;;;5054766;28;20037;-75
2022/07/24 01:58:27;;;;;;;9.15;5.70;;;16.30;99.90;;;;;;5054894;28;20037;-74
2022/07/24 02:00:53;;;;;;;7.35;5.70;;;16.30;99.90;;;;;;5054842;28;20142;-74
2022/07/24 02:03:19;;;;;;;7.32;5.30;;;16.40;99.90;;;;;;5037155;28;20041;-74
2022/07/24 02:05:45;;;;;;;5.80;5.22;;;16.30;99.90;;;;;;5054344;28;20171;-75
2022/07/24 02:08:11;;;;;;;6.65;5.05;;;16.30;99.90;;;;;;5036937;28;20401;-75
2022/07/24 02:10:37;;;;;;;7.07;5.68;;;16.00;99.90;;;;;;5053645;28;20128;-74
2022/07/24 02:13:03;;;;;;;7.53;6.13;;;16.20;99.90;;;;;;5037025;28;20126;-75
2022/07/24 02:15:28;;;;;;;8.02;5.75;;;16.20;99.90;;;;;;5036347;28;20534;-75
2022/07/24 02:17:57;;;;;;;6.45;5.60;;;16.30;99.90;;;;;;5036756;28;20152;-75
2022/07/24 02:20:23;;;;;;;8.27;6.07;;;16.40;99.90;;;;;;5054341;28;20033;-75
2022/07/24 02:22:49;;;;;;;8.45;5.70;;;16.20;99.90;;;;;;5019926;28;20037;-75
2022/07/24 02:25:15;;;;;;;6.57;5.80;;;16.30;99.90;;;;;;5036394;28;20033;-74
2022/07/24 02:27:41;;;;;;;7.32;6.07;;;16.30;99.90;;;;;;5036493;28;20045;-75
2022/07/24 02:30:10;;;;;;;8.18;6.00;;;16.20;99.90;;;;;;5036210;28;20095;-75
2022/07/24 02:32:36;;;;;;;7.10;5.75;;;16.30;99.90;;;;;;5052900;28;20045;-75
2022/07/24 02:35:02;;;;;;;7.25;5.50;;;16.20;99.90;;;;;;5035958;28;20413;-75
2022/07/24 02:37:28;;;;;;;6.85;6.15;;;16.30;99.90;;;;;;5052787;28;20091;-75
2022/07/24 02:39:53;;;;;;;8.52;6.25;;;16.10;99.90;;;;;;5054088;28;20508;-75
2022/07/24 02:42:19;;;;;;;7.97;5.88;;;16.30;99.90;;;;;;5036196;28;20041;-74
2022/07/24 02:44:44;;;;;;;7.10;6.20;;;16.10;99.90;;;;;;5053801;28;20033;-74
2022/07/24 02:47:10;;;;;;;9.77;6.40;;;17.40;99.90;;;;;;5053966;28;20045;-74
2022/07/24 02:49:36;;;;;;;7.97;6.20;;;16.30;99.90;;;;;;5035794;28;20525;-74
2022/07/24 02:52:02;;;;;;;6.82;5.78;;;17.40;99.90;;;;;;5054272;28;20064;-74
2022/07/24 02:54:28;;;;;;;8.10;6.00;;;16.20;99.90;;;;;;5053488;28;20565;-74
2022/07/24 02:56:53;;;;;;;6.90;6.05;;;16.20;99.90;;;;;;5053775;28;20127;-74
2022/07/24 02:59:19;;;;;;;6.68;5.97;;;16.10;99.90;;;;;;5059065;22;20044;-73
2022/07/24 03:01:45;;;;;;;6.50;5.82;;;16.20;99.90;;;;;;5055404;28;20486;-73
2022/07/24 03:04:10;;;;;;;8.80;6.40;;;16.20;99.90;;;;;;5073019;28;20028;-73
2022/07/24 03:06:36;;;;;;;7.78;6.22;;;16.00;99.90;;;;;;5073580;28;20509;-73
2022/07/24 03:09:03;;;;;;;6.72;5.82;;;16.20;99.90;;;;;;5054938;28;20044;-71
2022/07/24 03:11:28;;;;;;;7.50;6.18;;;16.20;99.90;;;;;;5055478;28;20074;-72
2022/07/24 03:13:54;;;;;;;8.98;6.03;;;17.30;99.90;;;;;;5072872;28;20037;-73
2022/07/24 03:16:20;;;;;;;7.35;6.07;;;16.20;99.90;;;;;;5071923;28;20118;-72
2022/07/24 03:18:45;;;;;;;7.28;6.22;;;17.20;99.90;;;;;;5055108;28;20040;-72
2022/07/24 03:21:13;;;;;;;6.63;5.88;;;16.30;99.90;;;;;;5072914;28;20042;-72
2022/07/24 03:23:39;;;;;;;10.52;7.03;;;16.30;99.90;;;;;;5054761;28;20086;-73
2022/07/24 03:26:05;;;;;;;10.82;7.35;;;16.20;99.90;;;;;;5038126;28;20068;-73
2022/07/24 03:28:30;;;;;;;8.10;6.45;;;16.40;99.90;;;;;;5055086;28;20644;-72
2022/07/24 03:30:56;;;;;;;8.80;6.00;;;17.60;99.90;;;;;;5072770;28;20045;-73
2022/07/24 03:33:21;;;;;;;9.43;5.97;;;16.30;99.90;;;;;;5054897;28;20036;-73
2022/07/24 03:35:47;;;;;;;8.60;7.13;;;16.40;99.90;;;;;;5037276;28;20086;-73
2022/07/24 03:38:13;;;;;;;8.85;6.15;;;16.20;99.90;;;;;;5071636;28;20208;-73
2022/07/24 03:40:38;;;;;;;8.07;6.72;;;16.20;99.90;;;;;;5070571;28;20033;-73
2022/07/24 03:43:04;;;;;;;8.70;7.45;;;17.50;99.90;;;;;;5072284;28;20094;-73
2022/07/24 03:45:29;;;;;;;8.80;6.30;;;16.20;99.90;;;;;;5070845;28;20036;-73
2022/07/24 03:47:55;;;;;;;8.52;6.57;;;16.30;99.90;;;;;;5054287;28;20434;-73
2022/07/24 03:50:21;;;;;;;9.30;7.13;;;16.20;99.90;;;;;;5037743;28;20041;-72
2022/07/24 03:52:46;;;;;;;7.63;6.82;;;16.80;99.90;;;;;;5037896;28;20059;-73
2022/07/24 03:55:12;;;;;;;24.40;9.30;;;16.20;99.90;;;;;;5070499;28;20051;-72
2022/07/24 03:57:37;;;;;;;7.80;6.05;;;16.50;99.90;;;;;;5072240;28;20450;-72
2022/07/24 04:00:05;;;;;;;9.75;7.15;;;16.30;99.90;;;;;;5070730;28;20055;-73
2022/07/24 04:02:31;;;;;;;8.90;6.80;;;16.10;99.90;;;;;;5054125;28;20044;-72
2022/07/24 04:04:56;;;;;;;9.07;8.18;;;16.50;99.90;;;;;;5037069;28;20037;-73
2022/07/24 04:07:22;;;;;;;8.48;6.80;;;17.80;99.90;;;;;;5072199;28;20390;-73
2022/07/24 04:09:48;;;;;;;9.07;7.20;;;16.30;99.90;;;;;;5070427;28;20128;-73
2022/07/24 04:12:13;;;;;;;8.25;7.20;;;16.40;99.90;;;;;;5070854;28;20147;-73
2022/07/24 04:14:39;;;;;;;9.60;6.43;;;17.70;99.90;;;;;;5069999;28;20039;-72
2022/07/24 04:17:05;;;;;;;8.07;6.10;;;17.50;99.90;;;;;;5071762;28;20037;-73
2022/07/24 04:19:31;;;;;;;12.55;7.35;;;16.30;99.90;;;;;;5070189;28;20093;-72
2022/07/24 04:21:57;;;;;;;9.80;7.28;;;16.30;99.90;;;;;;5053985;28;20036;-73
2022/07/24 04:24:23;;;;;;;8.38;6.72;;;16.40;99.90;;;;;;5053309;28;20481;-72
2022/07/24 04:26:49;;;;;;;8.00;6.53;;;16.40;99.90;;;;;;5070274;28;20037;-72
2022/07/24 04:29:14;;;;;;;9.05;7.32;;;16.20;99.90;;;;;;5071479;28;20033;-73
2022/07/24 04:31:40;;;;;;;7.50;6.47;;;16.40;99.90;;;;;;5071725;28;20044;-73
2022/07/24 04:34:06;;;;;;;8.68;7.40;;;16.20;99.90;;;;;;5069902;28;20044;-73
2022/07/24 04:36:31;;;;;;;9.35;7.30;;;16.20;99.90;;;;;;5071751;28;20037;-73
2022/07/24 04:38:57;;;;;;;9.35;6.60;;;16.30;99.90;;;;;;5071516;28;20095;-73
2022/07/24 04:41:23;;;;;;;11.48;7.40;;;16.50;99.90;;;;;;5053629;28;20116;-72
2022/07/24 04:43:49;;;;;;;8.10;7.03;;;16.40;99.90;;;;;;5071377;28;20043;-72
2022/07/24 04:46:15;;;;;;;8.85;7.20;;;16.40;99.90;;;;;;5053368;28;20119;-71
2022/07/24 04:48:41;;;;;;;9.10;7.38;;;16.50;99.90;;;;;;5053429;28;20037;-73
2022/07/24 04:51:06;;;;;;;9.63;7.43;;;16.30;99.90;;;;;;5036913;28;20041;-73
2022/07/24 04:53:32;;;;;;;11.15;6.95;;;16.60;99.90;;;;;;5070689;28;20036;-72
2022/07/24 04:55:58;;;;;;;8.82;7.60;;;16.60;99.90;;;;;;5070887;28;20045;-72
2022/07/24 04:58:25;;;;;;;10.38;7.07;;;16.70;99.90;;;;;;5053398;28;20044;-74
2022/07/24 05:00:51;;;;;;;10.50;8.15;;;16.60;99.90;;;;;;5053179;28;20081;-73
2022/07/24 05:03:16;;;;;;;10.32;7.32;;;16.70;99.90;;;;;;5069897;28;20041;-73
2022/07/24 05:05:42;;;;;;;9.15;6.80;;;16.60;99.90;;;;;;5053405;28;20197;-73
2022/07/24 05:08:08;;;;;;;10.10;7.57;;;16.80;99.90;;;;;;5071111;28;20044;-72
2022/07/24 05:10:33;;;;;;;8.63;7.22;;;16.90;99.90;;;;;;5070154;28;20047;-72
2022/07/24 05:12:59;;;;;;;11.90;8.38;;;16.90;99.90;;;;;;5071187;28;20489;-73
2022/07/24 05:15:24;;;;;;;9.10;7.53;;;16.90;99.90;;;;;;5070705;28;20076;-73
2022/07/24 05:17:50;;;;;;;11.15;8.55;;;17.00;99.90;;;;;;5070264;28;20086;-72
2022/07/24 05:20:16;;;;;;;9.20;7.50;;;17.60;99.90;;;;;;5053337;28;20047;-72
2022/07/24 05:22:41;;;;;;;12.90;7.63;;;18.30;99.90;;;;;;5071350;28;20563;-73
2022/07/24 05:25:07;;;;;;;10.52;7.32;;;17.00;99.90;;;;;;5069592;28;20041;-73
2022/07/24 05:27:33;;;;;;;13.68;7.60;;;17.20;99.90;;;;;;5071259;28;20729;-73
2022/07/24 05:29:58;;;;;;;12.18;7.78;;;17.30;99.90;;;;;;5070932;28;20432;-73
2022/07/24 05:32:24;;;;;;;11.10;7.60;;;17.70;99.90;;;;;;5070889;28;20037;-73
2022/07/24 05:34:50;;;;;;;8.60;7.70;;;18.10;99.90;;;;;;5071163;28;20048;-73
2022/07/24 05:37:15;;;;;;;11.15;7.65;;;18.30;99.90;;;;;;5070995;28;20047;-72
2022/07/24 05:39:41;;;;;;;11.30;8.30;;;17.40;99.90;;;;;;5052789;28;20394;-72
2022/07/24 05:42:06;;;;;;;11.75;8.25;;;17.20;99.90;;;;;;5069673;28;20032;-73
2022/07/24 05:44:32;;;;;;;13.50;8.15;;;17.60;99.90;;;;;;5069318;28;20575;-73
2022/07/24 05:46:58;;;;;;;9.05;8.13;;;17.80;99.90;;;;;;5069502;28;20036;-72
2022/07/24 05:49:23;;;;;;;11.55;8.75;;;17.90;99.90;;;;;;5070949;28;20074;-73
2022/07/24 05:51:49;;;;;;;10.27;8.48;;;18.00;99.90;;;;;;5036393;28;20036;-73
2022/07/24 05:54:14;;;;;;;10.98;8.68;;;18.90;99.90;;;;;;5069230;28;20119;-73
2022/07/24 05:56:40;;;;;;;10.70;8.23;;;18.00;99.90;;;;;;5052941;28;20090;-73
2022/07/24 05:59:06;;;;;;;10.13;8.73;;;16.10;99.90;;;;;;5036175;28;20048;-73
2022/07/24 06:01:32;;;;;;;14.98;10.13;;;20.00;99.90;;;;;;5052493;28;20041;-73
2022/07/24 06:03:58;;;;;;;12.90;9.65;;;18.40;99.90;;;;;;5071643;28;20048;-72
2022/07/24 06:06:24;;;;;;;12.05;9.23;;;18.30;99.90;;;;;;5074297;28;20044;-72
2022/07/24 06:08:50;;;;;;;15.07;10.05;;;19.00;99.90;;;;;;5056253;28;20044;-73
2022/07/24 06:11:17;;;;;;;14.32;10.10;;;18.80;99.90;;;;;;5072809;28;20040;-72
2022/07/24 06:13:43;;;;;;;13.65;10.88;;;18.60;99.90;;;;;;5072753;28;20405;-74
2022/07/24 06:16:08;;;;;;;16.15;10.15;;;19.00;99.90;;;;;;5072524;28;20052;-72
2022/07/24 06:18:34;;;;;;;13.02;10.43;;;20.80;99.90;;;;;;5073112;28;20079;-73
2022/07/24 06:21:00;;;;;;;14.73;10.80;;;19.00;99.90;;;;;;5072637;28;20037;-73
2022/07/24 06:23:25;;;;;;;15.18;10.85;;;19.20;99.90;;;;;;5074293;28;20086;-73
2022/07/24 06:25:51;;;;;;;16.38;11.60;;;19.90;99.90;;;;;;5039218;28;20434;-73
2022/07/24 06:28:16;;;;;;;15.43;11.50;;;19.20;99.90;;;;;;5074091;28;20048;-73
2022/07/24 06:30:42;;;;;;;14.75;11.73;;;19.50;99.90;;;;;;5072714;28;20040;-73
2022/07/24 06:33:07;;;;;;;18.42;12.38;;;19.40;99.90;;;;;;5074173;28;20111;-73
2022/07/24 06:35:33;;;;;;;17.15;12.43;;;19.50;99.90;;;;;;5072561;28;20113;-73
2022/07/24 06:38:00;;;;;;;14.80;12.50;;;19.90;99.90;;;;;;5072607;28;20594;-73
2022/07/24 06:40:26;;;;;;;17.40;12.75;;;19.70;99.90;;;;;;5072351;28;20044;-73
2022/07/24 06:42:51;;;;;;;16.98;12.57;;;20.70;99.90;;;;;;5073465;28;20398;-73
2022/07/24 06:45:17;;;;;;;16.63;11.80;;;20.10;99.90;;;;;;5038671;28;20042;-73
2022/07/24 06:47:43;;;;;;;18.48;12.55;;;21.20;99.90;;;;;;5038747;28;20110;-73
2022/07/24 06:50:11;;;;;;;18.40;12.15;;;20.10;99.90;;;;;;5072205;28;20044;-72
2022/07/24 06:52:36;;;;;;;15.52;12.35;;;20.10;99.90;;;;;;5038601;28;20485;-73
2022/07/24 06:55:02;;;;;;;19.23;12.75;;;20.30;99.90;;;;;;5071865;28;20078;-74
2022/07/24 06:57:28;;;;;;;17.55;12.23;;;20.50;99.90;;;;;;5072176;28;20123;-73
2022/07/24 06:59:54;;;;;;;14.20;11.63;;;22.20;99.90;;;;;;5072007;28;20037;-73
2022/07/24 07:02:20;;;;;;;13.63;11.32;;;20.90;99.90;;;;;;5073375;28;20102;-72
2022/07/24 07:04:47;;;;;;;13.68;10.38;;;21.40;99.90;;;;;;5055076;28;20498;-73
2022/07/24 07:07:12;;;;;;;17.58;10.35;;;21.10;99.90;;;;;;5055162;28;20490;-73
2022/07/24 07:09:38;;;;;;;12.93;10.25;;;21.10;99.90;;;;;;5073038;28;20037;-73
2022/07/24 07:12:04;;;;;;;14.70;10.80;;;20.80;99.90;;;;;;5071948;28;20048;-73
2022/07/24 07:14:30;;;;;;;13.15;9.80;;;20.80;99.90;;;;;;5071260;28;20490;-73
2022/07/24 07:16:55;;;;;;;15.30;11.27;;;20.80;99.90;;;;;;5071162;28;20056;-73
2022/07/24 07:19:21;;;;;;;15.95;10.63;;;22.20;99.90;;;;;;5071449;28;20047;-73
2022/07/24 07:21:47;;;;;;;14.88;9.48;;;20.70;99.90;;;;;;5054935;28;20582;-73
2022/07/24 07:24:12;;;;;;;14.95;9.73;;;20.90;99.90;;;;;;5038311;28;20120;-73
2022/07/24 07:26:38;;;;;;;16.35;10.35;;;20.70;99.90;;;;;;5038383;28;20040;-72
2022/07/24 07:29:03;;;;;;;15.52;10.27;;;20.90;99.90;;;;;;5071486;28;20052;-73
2022/07/24 07:31:29;;;;;;;15.18;10.57;;;20.60;99.90;;;;;;5072850;28;20043;-73
2022/07/24 07:33:56;;;;;;;13.68;10.02;;;20.90;99.90;;;;;;5037692;28;20045;-72
2022/07/24 07:36:21;;;;;;;11.35;9.30;;;20.70;99.90;;;;;;5071561;28;20406;-73
2022/07/24 07:38:47;;;;;;;14.02;10.38;;;21.00;99.90;;;;;;5071235;28;20036;-73
2022/07/24 07:41:13;;;;;;;16.85;10.10;;;21.10;99.90;;;;;;5071293;28;20033;-73
2022/07/24 07:43:38;;;;;;;11.85;9.43;;;22.00;99.90;;;;;;5070940;28;20079;-73
2022/07/24 07:46:05;;;;;;;12.00;9.43;;;22.10;99.90;;;;;;5071000;28;20034;-73
2022/07/24 07:48:30;;;;;;;11.32;8.90;;;21.00;99.90;;;;;;5072047;28;20501;-73
2022/07/24 07:50:57;;;;;;;13.02;8.35;;;21.20;99.90;;;;;;5072277;28;20040;-73
2022/07/24 07:53:22;;;;;;;14.23;8.93;;;21.30;99.90;;;;;;5054217;28;20102;-73
2022/07/24 07:55:51;;;;;;;10.98;7.95;;;21.50;99.90;;;;;;5070818;28;20436;-73
2022/07/24 07:58:17;;;;;;;10.48;7.55;;;21.50;99.90;;;;;;5072004;28;20048;-73
2022/07/24 08:00:43;;;;;;;12.25;8.20;;;21.50;99.90;;;;;;5071887;28;20036;-73
2022/07/24 08:03:08;;;;;;;8.05;6.97;;;21.50;99.90;;;;;;5070786;28;20036;-73
2022/07/24 08:05:34;;;;;;;9.88;7.43;;;22.70;99.90;;;;;;5071667;28;20047;-73
2022/07/24 08:08:00;;;;;;;9.98;7.00;;;21.70;99.90;;;;;;5072157;28;20039;-74
2022/07/24 08:10:26;;;;;;;8.55;6.35;;;22.20;99.90;;;;;;5053866;28;20510;-73
2022/07/24 08:12:52;;;;;;;6.63;5.75;;;23.60;99.90;;;;;;5071039;28;20032;-73
2022/07/24 08:15:17;;;;;;;9.02;6.40;;;22.40;99.90;;;;;;5070273;28;20076;-73
2022/07/24 08:17:43;;;;;;;7.80;5.75;;;22.40;99.90;;;;;;5071967;28;20139;-73
2022/07/24 08:20:09;;;;;;;9.70;6.75;;;23.80;99.90;;;;;;5071673;28;20072;-73
2022/07/24 08:22:35;;;;;;;7.53;6.28;;;22.30;99.90;;;;;;5071821;28;20039;-73
2022/07/24 08:25:00;;;;;;;9.40;6.13;;;23.20;99.90;;;;;;5070103;28;20033;-73
2022/07/24 08:27:26;;;;;;;9.00;5.57;;;22.20;99.90;;;;;;5071478;28;20047;-73
2022/07/24 08:29:52;;;;;;;10.27;5.60;;;23.10;99.90;;;;;;5071718;28;20072;-73
2022/07/24 08:32:18;;;;;;;5.93;5.03;;;22.90;99.90;;;;;;5070386;28;20165;-73
2022/07/24 08:34:44;;;;;;;8.48;5.38;;;23.30;99.90;;;;;;5071522;28;20074;-72
2022/07/24 08:37:09;;;;;;;8.35;5.38;;;25.10;99.90;;;;;;5070511;28;20041;-72
2022/07/24 08:39:35;;;;;;;7.47;4.95;;;23.40;99.90;;;;;;5070221;28;21924;-71
2022/07/24 08:42:00;;;;;;;8.80;5.22;;;23.20;99.90;;;;;;5070119;28;20033;-72
2022/07/24 08:44:26;;;;;;;9.85;4.68;;;24.40;99.90;;;;;;5069803;28;20036;-73
2022/07/24 08:46:54;;;;;;;6.30;4.70;;;23.80;99.90;;;;;;5071626;28;20502;-69
2022/07/24 08:49:21;;;;;;;5.80;3.92;;;23.30;99.90;;;;;;5070094;28;20090;-68
2022/07/24 08:51:49;;;;;;;6.40;4.50;;;23.60;99.90;;;;;;5070426;28;20071;-67
2022/07/24 08:54:15;;;;;;;7.97;3.97;;;23.60;99.90;;;;;;5070967;28;20038;-67
2022/07/24 08:56:41;;;;;;;6.78;3.63;;;23.60;99.90;;;;;;5070017;28;20508;-67
2022/07/24 09:01:39;;;;;;;6.82;3.75;;;23.70;99.90;;;;;;5070052;28;20422;-70
2022/07/24 09:04:04;;;;;;;6.40;4.30;;;23.90;99.90;;;;;;5071533;28;20052;-71
2022/07/24 09:06:30;;;;;;;7.20;3.90;;;23.50;99.90;;;;;;5075891;28;20040;-71
2022/07/24 09:09:01;;;;;;;5.65;4.30;;;24.20;99.90;;;;;;5074093;28;20452;-72
2022/07/24 09:11:29;;;;;;;6.28;3.60;;;23.90;99.90;;;;;;5017498;28;20044;-71
2022/07/24 09:16:45;;;;;;;4.18;3.25;;;25.30;99.90;;;;;;5050634;28;20512;-70
2022/07/24 09:19:13;;;;;;;6.18;4.15;;;24.20;99.90;;;;;;5046744;28;20041;-71
2022/07/24 09:21:40;;;;;;;6.07;3.80;;;24.60;99.90;;;;;;5056332;28;20064;-71
2022/07/24 09:24:21;;;;;;;7.38;3.55;;;24.10;99.90;;;;;;5045765;28;20537;-73
2022/07/24 09:26:48;;;;;;;6.20;3.35;;;24.70;99.90;;;;;;5030016;28;20506;-71
2022/07/24 09:29:15;;;;;;;8.38;4.25;;;24.80;99.90;;;;;;5047007;28;20045;-71
2022/07/24 09:31:52;;;;;;;4.20;2.60;;;24.40;99.90;;;;;;5047733;28;20116;-72
2022/07/24 09:34:17;;;;;;;6.20;3.10;;;24.40;99.90;;;;;;5028988;28;20033;-72
2022/07/24 09:37:04;;;;;;;6.22;3.40;;;24.20;99.90;;;;;;5039849;28;20044;-71
2022/07/24 09:39:32;;;;;;;6.70;3.80;;;24.30;99.90;;;;;;5037654;28;20049;-71
2022/07/24 09:41:58;;;;;;;5.35;3.08;;;24.60;99.90;;;;;;5051584;28;20029;-71
2022/07/24 09:44:25;;;;;;;3.03;2.72;;;24.70;99.90;;;;;;5027749;28;20071;-72
2022/07/24 09:46:58;;;;;;;5.35;2.92;;;24.70;99.90;;;;;;5031118;28;20118;-71
2022/07/24 09:49:24;;;;;;;5.53;2.72;;;25.90;99.90;;;;;;5050183;28;20397;-71
2022/07/24 09:52:04;;;;;;;4.53;2.90;;;24.80;99.90;;;;;;5049673;28;20048;-71
2022/07/24 09:54:32;;;;;;;4.78;2.78;;;24.30;99.90;;;;;;5035620;28;20029;-71
2022/07/24 09:57:19;;;;;;;5.40;3.08;;;24.20;99.90;;;;;;5052524;28;20048;-71
2022/07/24 09:59:59;;;;;;;3.45;2.80;;;24.40;99.90;;;;;;5053499;28;20040;-71
2022/07/24 10:02:28;;;;;;;5.80;3.28;;;24.40;99.90;;;;;;5054566;28;20040;-70
2022/07/24 10:04:55;;;;;;;6.55;2.88;;;26.20;99.90;;;;;;5053186;28;20037;-70
2022/07/24 10:07:24;;;;;;;6.78;3.55;;;25.80;99.90;;;;;;5053122;28;20047;-71
2022/07/24 10:09:52;;;;;;;3.35;2.80;;;24.70;99.90;;;;;;5036763;28;20071;-71
2022/07/24 10:12:20;;;;;;;6.90;3.00;;;24.70;99.90;;;;;;5020357;28;20494;-70
2022/07/24 10:14:48;;;;;;;6.20;3.08;;;25.00;99.90;;;;;;5052888;28;20048;-70
2022/07/24 10:17:15;;;;;;;4.43;3.10;;;25.50;99.90;;;;;;5057583;28;20041;-70
2022/07/24 10:19:42;;;;;;;5.15;3.45;;;26.90;99.90;;;;;;5044667;28;20048;-70
2022/07/24 10:22:13;;;;;;;9.90;3.78;;;25.70;99.90;;;;;;5044061;28;20124;-69
2022/07/24 10:24:57;;;;;;;5.25;3.00;;;25.00;99.90;;;;;;5071608;28;20079;-70
2022/07/24 10:27:35;;;;;;;9.30;4.00;;;24.90;99.90;;;;;;5060713;28;20043;-70
2022/07/24 10:30:05;;;;;;;5.50;2.85;;;24.80;99.90;;;;;;5016280;28;20122;-71
2022/07/24 10:32:33;;;;;;;4.70;2.60;;;25.30;99.90;;;;;;5033967;28;20499;-70
2022/07/24 10:35:08;;;;;;;4.60;3.08;;;25.80;99.90;;;;;;5016339;28;20037;-72
2022/07/24 10:37:48;;;;;;;4.47;2.90;;;25.40;99.90;;;;;;5000067;28;20045;-70
2022/07/24 10:40:44;;;;;;;5.47;2.58;;;25.30;99.90;;;;;;5045058;28;20041;-71
2022/07/24 10:43:15;;;;;;;3.72;2.88;;;25.10;99.90;;;;;;5069423;28;20041;-71
2022/07/24 10:45:45;;;;;;;5.05;2.35;;;25.50;99.90;;;;;;5061445;28;20060;-72
2022/07/24 10:48:39;;;;;;;2.78;2.50;;;25.50;99.80;;;;;;5052523;28;20044;-71
2022/07/24 10:51:13;;;;;;;3.78;2.70;;;25.60;99.90;;;;;;5053568;28;20040;-71
2022/07/24 10:53:43;;;;;;;3.70;2.50;;;25.50;99.90;;;;;;5052410;28;20047;-71
2022/07/24 10:56:23;;;;;;;3.33;2.25;;;25.60;99.80;;;;;;5052426;28;20072;-71
2022/07/24 10:59:07;;;;;;;5.30;3.10;;;25.80;99.80;;;;;;5052637;28;20114;-70
2022/07/24 11:01:44;;;;;;;3.40;2.40;;;25.90;99.90;;;;;;5051930;28;20086;-70
2022/07/24 11:04:19;;;;;;;4.20;2.38;;;25.70;99.80;;;;;;5053487;28;20308;-70
2022/07/24 11:06:47;;;;;;;3.50;2.40;;;26.00;99.90;;;;;;5052556;28;20091;-71
2022/07/24 11:09:14;;;;;;;3.20;2.33;;;26.60;99.90;;;;;;5035677;28;20414;-71
2022/07/24 11:11:42;;;;;;;4.45;2.67;;;26.00;99.80;;;;;;5054504;28;20041;-70
2022/07/24 11:14:09;;;;;;;3.17;2.22;;;25.90;99.70;;;;;;5018142;28;20112;-70
2022/07/24 11:16:35;;;;;;;3.22;2.40;;;26.60;99.90;;;;;;5052184;28;20510;-71
2022/07/24 11:19:01;;;;;;;4.35;2.65;;;25.80;99.90;;;;;;5063353;28;20090;-70
2022/07/24 11:21:44;;;;;;;5.63;2.92;;;25.90;99.80;;;;;;5061898;28;20041;-70
2022/07/24 11:26:50;;;;;;;5.78;2.50;;;26.00;99.90;;;;;;5033094;28;20037;-70
2022/07/24 11:29:17;;;;;;;5.45;3.08;;;26.30;99.80;;;;;;5033193;28;20037;-70
2022/07/24 11:31:49;;;;;;;2.42;2.22;;;26.40;99.90;;;;;;5045154;28;20055;-70
2022/07/24 11:34:14;;;;;;;5.70;2.75;;;26.30;99.90;;;;;;5050747;28;20048;-71
2022/07/24 11:36:43;;;;;;;3.70;2.60;;;26.30;99.90;;;;;;5051317;28;20097;-70
2022/07/24 11:39:09;;;;;;;4.45;2.80;;;26.70;99.90;;;;;;5055118;28;20041;-71
2022/07/24 11:41:49;;;;;;;3.08;2.25;;;26.50;99.60;;;;;;5053154;28;20037;-70
2022/07/24 11:44:31;;;;;;;3.08;2.47;;;26.40;99.20;;;;;;5068453;28;20565;-70
2022/07/24 11:47:07;;;;;;;6.22;2.42;;;26.20;99.50;;;;;;5069071;28;20043;-71
2022/07/24 11:49:43;;;;;;;3.63;2.65;;;26.50;99.40;;;;;;5053029;28;20044;-70
2022/07/24 11:52:23;;;;;;;3.03;2.72;;;26.40;99.40;;;;;;5029055;28;20289;-70
2022/07/24 11:54:51;;;;;;;4.22;2.55;;;27.00;99.70;;;;;;5033188;28;20041;-69
2022/07/24 11:57:29;;;;;;;6.80;2.90;;;27.10;99.50;;;;;;5033675;28;20086;-69
2022/07/24 11:59:55;;;;;;;6.85;2.60;;;26.80;99.20;;;;;;5033606;28;20112;-69
2022/07/24 12:02:22;;;;;;;3.72;2.45;;;27.20;99.40;;;;;;5052154;28;20120;-70
2022/07/24 12:04:48;;;;;;;3.30;2.58;;;27.10;99.10;;;;;;5033627;28;20044;-69
2022/07/24 12:07:23;;;;;;;3.05;2.75;;;26.90;99.30;;;;;;5022888;28;20035;-70
2022/07/24 12:09:51;;;;;;;6.43;2.45;;;27.10;99.60;;;;;;5055982;28;20048;-70
2022/07/24 12:12:34;;;;;;;5.25;2.45;;;27.20;99.50;;;;;;5056868;28;20085;-71
2022/07/24 12:15:04;;;;;;;3.30;2.30;;;27.10;99.20;;;;;;5059541;28;20482;-70
2022/07/24 12:17:32;;;;;;;3.72;2.55;;;26.90;98.40;;;;;;5050415;28;20129;-69
2022/07/24 12:20:00;;;;;;;2.63;2.05;;;27.10;99.00;;;;;;5016479;28;20487;-70
2022/07/24 12:22:28;;;;;;;4.80;2.53;;;27.30;99.20;;;;;;5036088;28;20116;-69
2022/07/24 12:24:56;;;;;;;8.77;2.78;;;27.20;99.10;;;;;;5012118;28;20052;-70
2022/07/24 12:27:36;;;;;;;5.93;2.38;;;27.30;99.00;;;;;;5047941;28;20408;-70
2022/07/24 12:30:18;;;;;;;3.30;2.30;;;27.60;99.00;;;;;;5044059;28;20032;-71
2022/07/24 12:32:59;;;;;;;4.15;2.42;;;27.30;98.40;;;;;;5029628;28;20076;-71
2022/07/24 12:35:26;;;;;;;3.63;2.53;;;27.10;98.40;;;;;;4996926;28;20385;-70
2022/07/24 12:37:53;;;;;;;4.63;2.30;;;27.40;98.60;;;;;;5050459;28;20040;-71
2022/07/24 12:40:30;;;;;;;5.05;2.67;;;27.80;98.40;;;;;;5068291;28;20044;-69
2022/07/24 12:43:07;;;;;;;5.03;2.38;;;27.90;98.20;;;;;;5065673;28;20143;-70
2022/07/24 12:45:32;;;;;;;4.63;2.75;;;27.60;98.30;;;;;;5052267;28;20059;-70
2022/07/24 12:48:21;;;;;;;2.88;1.90;;;27.70;98.30;;;;;;5060758;28;20063;-70
2022/07/24 12:51:01;;;;;;;5.85;2.50;;;27.50;97.50;;;;;;5033501;28;20051;-69
2022/07/24 12:53:28;;;;;;;4.50;2.55;;;27.60;98.40;;;;;;5056794;28;20072;-70